createdAt,value
2024-04-19T00:02:22.117Z,8.10
2024-04-19T00:04:49.436Z,8.10
2024-04-19T00:07:16.802Z,8.10
2024-04-19T00:09:44.453Z,8.10
2024-04-19T00:12:11.664Z,8.00
2024-04-19T00:14:38.806Z,7.90
2024-04-19T00:17:06.194Z,7.80
2024-04-19T00:19:33.648Z,7.70
2024-04-19T00:22:01.017Z,7.60
2024-04-19T00:24:28.242Z,7.60
2024-04-19T00:26:55.391Z,7.50
2024-04-19T00:29:22.720Z,7.50
2024-04-19T00:31:49.810Z,7.50
2024-04-19T00:34:17.001Z,7.40
2024-04-19T00:36:44.744Z,7.40
2024-04-19T00:39:12.150Z,7.40
2024-04-19T00:41:39.428Z,7.30
2024-04-19T00:44:06.663Z,7.40
2024-04-19T00:46:34.658Z,7.30
2024-04-19T00:49:02.077Z,7.30
2024-04-19T00:51:31.828Z,7.40
2024-04-19T00:54:01.539Z,7.30
2024-04-19T00:56:29.053Z,7.40
2024-04-19T00:58:56.775Z,7.40
2024-04-19T01:01:24.463Z,7.30
2024-04-19T01:03:51.875Z,7.30
2024-04-19T01:06:19.335Z,7.30
2024-04-19T01:08:46.934Z,7.30
2024-04-19T01:11:14.539Z,7.30
2024-04-19T01:13:43.973Z,7.30
2024-04-19T01:16:11.200Z,7.30
2024-04-19T01:18:38.410Z,7.30
2024-04-19T01:21:10.082Z,7.30
2024-04-19T01:23:37.693Z,7.30
2024-04-19T01:26:06.036Z,7.30
2024-04-19T01:28:33.517Z,7.30
2024-04-19T01:31:03.928Z,7.30
2024-04-19T01:33:34.382Z,7.30
2024-04-19T01:36:01.586Z,7.30
2024-04-19T01:38:28.989Z,7.30
2024-04-19T01:40:59.122Z,7.30
2024-04-19T01:43:35.087Z,7.30
2024-04-19T01:46:02.334Z,7.40
2024-04-19T01:48:32.851Z,7.30
2024-04-19T01:51:03.353Z,7.30
2024-04-19T01:53:31.911Z,7.20
2024-04-19T01:56:01.002Z,7.20
2024-04-19T01:58:28.294Z,7.20
2024-04-19T02:00:55.636Z,7.20
2024-04-19T02:03:23.265Z,7.20
2024-04-19T02:05:50.442Z,7.20
2024-04-19T02:08:17.697Z,7.20
2024-04-19T02:10:45.132Z,7.20
2024-04-19T02:13:15.294Z,7.20
2024-04-19T02:15:42.647Z,7.20
2024-04-19T02:18:09.875Z,7.20
2024-04-19T02:20:37.238Z,7.20
2024-04-19T02:23:05.102Z,7.20
2024-04-19T02:25:32.326Z,7.20
2024-04-19T02:28:18.656Z,7.20
2024-04-19T02:31:01.047Z,7.20
2024-04-19T02:33:32.029Z,7.20
2024-04-19T02:36:01.733Z,7.20
2024-04-19T02:38:31.500Z,7.10
2024-04-19T02:40:58.694Z,7.20
2024-04-19T02:43:25.861Z,7.10
2024-04-19T02:45:57.967Z,7.10
2024-04-19T02:48:28.456Z,7.10
2024-04-19T02:50:55.851Z,7.10
2024-04-19T02:53:23.180Z,7.00
2024-04-19T02:55:52.216Z,7.00
2024-04-19T02:58:19.959Z,7.10
2024-04-19T03:00:48.971Z,7.10
2024-04-19T03:03:16.488Z,7.10
2024-04-19T03:05:45.361Z,7.10
2024-04-19T03:08:12.831Z,7.10
2024-04-19T03:10:41.549Z,7.10
2024-04-19T03:13:11.760Z,7.10
2024-04-19T03:15:39.725Z,7.10
2024-04-19T03:18:07.839Z,7.10
2024-04-19T03:20:35.507Z,7.20
2024-04-19T03:23:03.227Z,7.20
2024-04-19T03:25:31.239Z,7.20
2024-04-19T03:27:58.464Z,7.20
2024-04-19T03:30:27.529Z,7.20
2024-04-19T03:32:54.886Z,7.20
2024-04-19T03:35:25.024Z,7.20
2024-04-19T03:37:52.524Z,7.10
2024-04-19T03:40:19.709Z,7.20
2024-04-19T03:42:49.122Z,7.20
2024-04-19T03:45:35.958Z,7.20
2024-04-19T03:48:03.598Z,7.20
2024-04-19T03:50:31.164Z,7.20
2024-04-19T03:52:58.365Z,7.20
2024-04-19T03:55:25.572Z,7.20
2024-04-19T03:57:52.846Z,7.20
2024-04-19T04:00:20.460Z,7.20
2024-04-19T04:02:50.816Z,7.20
2024-04-19T04:05:18.122Z,7.20
2024-04-19T04:07:45.348Z,7.30
2024-04-19T04:10:12.911Z,7.20
2024-04-19T04:12:40.298Z,7.20
2024-04-19T04:15:08.555Z,7.30
2024-04-19T04:17:35.938Z,7.30
2024-04-19T04:20:04.796Z,7.30
2024-04-19T04:22:35.259Z,7.30
2024-04-19T04:25:02.481Z,7.30
2024-04-19T04:27:29.977Z,7.20
2024-04-19T04:29:57.206Z,7.30
2024-04-19T04:32:24.340Z,7.30
2024-04-19T04:34:52.835Z,7.30
2024-04-19T04:37:20.108Z,7.30
2024-04-19T04:39:47.470Z,7.30
2024-04-19T04:42:14.744Z,7.30
2024-04-19T04:44:42.274Z,7.30
2024-04-19T04:47:10.009Z,7.30
2024-04-19T04:49:37.985Z,7.30
2024-04-19T04:52:05.428Z,7.30
2024-04-19T04:54:34.045Z,7.30
2024-04-19T04:57:02.719Z,7.30
2024-04-19T04:59:29.907Z,7.30
2024-04-19T05:01:57.030Z,7.40
2024-04-19T05:04:24.351Z,7.40
2024-04-19T05:06:51.728Z,7.40
2024-04-19T05:09:19.411Z,7.40
2024-04-19T05:11:48.077Z,7.40
2024-04-19T05:14:15.305Z,7.40
2024-04-19T05:16:42.647Z,7.50
2024-04-19T05:19:10.174Z,7.40
2024-04-19T05:21:37.588Z,7.50
2024-04-19T05:24:05.223Z,7.50
2024-04-19T05:26:32.447Z,7.50
2024-04-19T05:28:59.874Z,7.50
2024-04-19T05:31:27.288Z,7.60
2024-04-19T05:33:55.259Z,7.60
2024-04-19T05:36:22.668Z,7.60
2024-04-19T05:38:50.145Z,7.60
2024-04-19T05:41:18.592Z,7.60
2024-04-19T05:43:49.124Z,7.70
2024-04-19T05:46:16.412Z,7.70
2024-04-19T05:48:43.955Z,7.70
2024-04-19T05:51:11.343Z,7.70
2024-04-19T05:53:38.558Z,7.70
2024-04-19T05:56:05.947Z,7.80
2024-04-19T05:58:33.438Z,7.80
2024-04-19T06:01:02.594Z,7.80
2024-04-19T06:03:30.278Z,7.80
2024-04-19T06:05:57.460Z,7.80
2024-04-19T06:08:24.977Z,7.90
2024-04-19T06:10:52.370Z,7.90
2024-04-19T06:13:19.482Z,8.00
2024-04-19T06:15:46.738Z,8.00
2024-04-19T06:18:14.138Z,8.00
2024-04-19T06:20:43.673Z,8.00
2024-04-19T06:23:10.834Z,8.00
2024-04-19T06:25:38.484Z,8.10
2024-04-19T06:28:05.969Z,8.10
2024-04-19T06:30:33.248Z,8.20
2024-04-19T06:33:03.780Z,8.10
2024-04-19T06:35:34.644Z,8.20
2024-04-19T06:38:01.801Z,8.30
2024-04-19T06:40:31.427Z,8.30
2024-04-19T06:42:58.846Z,8.30
2024-04-19T06:45:26.054Z,8.40
2024-04-19T06:47:53.244Z,8.40
2024-04-19T06:50:20.614Z,8.40
2024-04-19T06:52:47.993Z,8.50
2024-04-19T06:55:15.226Z,8.60
2024-04-19T06:57:42.637Z,8.60
2024-04-19T07:00:23.652Z,8.70
2024-04-19T07:03:03.453Z,8.80
2024-04-19T07:05:31.541Z,8.80
2024-04-19T07:08:00.533Z,8.80
2024-04-19T07:10:27.933Z,8.90
2024-04-19T07:12:55.266Z,8.90
2024-04-19T07:15:22.778Z,9.00
2024-04-19T07:17:53.541Z,9.10
2024-04-19T07:20:23.942Z,9.20
2024-04-19T07:22:51.305Z,9.30
2024-04-19T07:25:18.725Z,9.30
2024-04-19T07:27:47.044Z,9.40
2024-04-19T07:30:16.654Z,9.40
2024-04-19T07:32:44.297Z,9.40
2024-04-19T07:35:11.779Z,9.40
2024-04-19T07:37:39.025Z,9.40
2024-04-19T07:40:07.049Z,9.40
2024-04-19T07:42:34.637Z,9.50
2024-04-19T07:45:02.662Z,9.50
2024-04-19T07:47:29.905Z,9.50
2024-04-19T07:49:57.442Z,9.60
2024-04-19T07:52:26.105Z,9.60
2024-04-19T07:54:53.615Z,9.60
2024-04-19T07:57:23.749Z,9.60
2024-04-19T07:59:51.315Z,9.70
2024-04-19T08:02:19.274Z,9.60
2024-04-19T08:04:46.724Z,9.60
2024-04-19T08:07:23.939Z,9.70
2024-04-19T08:09:55.932Z,9.70
2024-04-19T08:12:23.357Z,9.90
2024-04-19T08:14:50.857Z,10.00
2024-04-19T08:17:18.290Z,10.10
2024-04-19T08:19:45.472Z,10.20
2024-04-19T08:22:12.858Z,10.20
2024-04-19T08:24:40.390Z,10.20
2024-04-19T08:27:07.851Z,10.40
2024-04-19T08:29:36.234Z,10.40
2024-04-19T08:32:08.562Z,10.50
2024-04-19T08:34:36.189Z,10.70
2024-04-19T08:37:03.662Z,10.90
2024-04-19T08:39:33.804Z,10.80
2024-04-19T08:42:07.124Z,10.70
2024-04-19T08:44:35.158Z,10.70
2024-04-19T08:47:05.519Z,10.70
2024-04-19T08:49:34.017Z,10.70
2024-04-19T08:52:14.449Z,10.90
2024-04-19T08:54:49.879Z,11.00
2024-04-19T08:57:17.427Z,11.10
2024-04-19T08:59:48.559Z,11.20
2024-04-19T09:02:20.627Z,11.20
2024-04-19T09:04:47.820Z,11.20
2024-04-19T09:07:15.070Z,11.00
2024-04-19T09:09:44.239Z,11.00
2024-04-19T09:12:11.584Z,11.10
2024-04-19T09:14:38.887Z,11.10
2024-04-19T09:17:06.202Z,11.20
2024-04-19T09:19:36.911Z,11.20
2024-04-19T09:22:04.325Z,11.30
2024-04-19T09:24:31.570Z,11.60
2024-04-19T09:27:14.250Z,11.60
2024-04-19T09:29:43.721Z,11.60
2024-04-19T09:32:11.389Z,11.60
2024-04-19T09:34:38.678Z,11.60
2024-04-19T09:37:06.373Z,11.70
2024-04-19T09:39:38.426Z,11.70
2024-04-19T09:42:06.781Z,11.40
2024-04-19T09:44:35.022Z,11.10
2024-04-19T09:47:07.008Z,11.10
2024-04-19T09:49:34.571Z,11.20
2024-04-19T09:52:05.404Z,11.20
2024-04-19T09:54:39.249Z,11.10
2024-04-19T09:57:08.385Z,11.20
2024-04-19T09:59:37.470Z,11.10
2024-04-19T10:02:14.125Z,11.10
2024-04-19T10:04:47.888Z,11.00
2024-04-19T10:07:16.917Z,11.10
2024-04-19T10:09:45.308Z,11.00
2024-04-19T10:12:13.204Z,11.20
2024-04-19T10:14:40.538Z,11.30
2024-04-19T10:17:08.690Z,11.40
2024-04-19T10:19:45.450Z,11.50
2024-04-19T10:22:26.093Z,11.40
2024-04-19T10:25:03.991Z,11.30
2024-04-19T10:27:34.903Z,11.30
2024-04-19T10:30:11.265Z,11.20
2024-04-19T10:32:43.771Z,11.60
2024-04-19T10:35:14.251Z,11.90
2024-04-19T10:37:41.570Z,12.20
2024-04-19T10:40:15.711Z,12.20
2024-04-19T10:42:43.453Z,11.70
2024-04-19T10:45:17.705Z,11.80
2024-04-19T10:47:45.409Z,11.80
2024-04-19T10:50:13.109Z,12.00
2024-04-19T10:52:43.453Z,12.10
2024-04-19T10:55:11.420Z,12.20
2024-04-19T10:57:38.780Z,12.20
2024-04-19T11:00:07.978Z,12.70
2024-04-19T11:02:36.653Z,12.50
2024-04-19T11:05:04.314Z,12.50
2024-04-19T11:07:32.016Z,12.60
2024-04-19T11:10:00.336Z,12.60
2024-04-19T11:12:28.726Z,12.40
2024-04-19T11:14:58.604Z,12.30
2024-04-19T11:17:26.379Z,12.40
2024-04-19T11:19:53.982Z,12.20
2024-04-19T11:22:21.514Z,12.00
2024-04-19T11:24:49.194Z,12.00
2024-04-19T11:27:16.738Z,12.20
2024-04-19T11:29:44.360Z,12.30
2024-04-19T11:32:11.690Z,12.30
2024-04-19T11:34:42.388Z,12.40
2024-04-19T11:37:18.756Z,12.10
2024-04-19T11:39:49.288Z,12.10
2024-04-19T11:42:25.879Z,12.10
2024-04-19T11:44:54.896Z,11.90
2024-04-19T11:47:22.988Z,12.00
2024-04-19T11:49:51.232Z,12.10
2024-04-19T11:52:21.145Z,11.90
2024-04-19T11:54:49.475Z,12.30
2024-04-19T11:57:16.907Z,12.30
2024-04-19T11:59:44.360Z,12.70
2024-04-19T12:02:11.584Z,12.70
2024-04-19T12:04:42.908Z,12.80
2024-04-19T12:07:13.468Z,13.00
2024-04-19T12:09:44.034Z,13.00
2024-04-19T12:12:52.197Z,13.30
2024-04-19T12:15:44.792Z,13.50
2024-04-19T12:17:50.391Z,13.20
2024-04-19T12:20:25.300Z,13.10
2024-04-19T12:23:07.700Z,13.00
2024-04-19T12:25:36.651Z,12.70
2024-04-19T12:28:04.600Z,12.40
2024-04-19T12:30:32.049Z,11.90
2024-04-19T12:33:01.757Z,11.10
2024-04-19T12:35:29.492Z,10.90
2024-04-19T12:37:59.496Z,10.90
2024-04-19T12:40:26.748Z,10.50
2024-04-19T12:42:54.701Z,10.50
2024-04-19T12:45:23.507Z,10.10
2024-04-19T12:47:51.169Z,9.10
2024-04-19T12:50:18.620Z,8.80
2024-04-19T12:52:45.945Z,8.90
2024-04-19T12:55:13.395Z,9.00
2024-04-19T12:57:40.676Z,9.20
2024-04-19T13:00:16.090Z,9.20
2024-04-19T13:02:55.663Z,9.30
2024-04-19T13:05:24.136Z,9.80
2024-04-19T13:07:51.672Z,10.20
2024-04-19T13:10:23.187Z,10.20
2024-04-19T13:12:50.744Z,9.10
2024-04-19T13:15:18.289Z,8.90
2024-04-19T13:17:45.507Z,8.90
2024-04-19T13:20:12.870Z,9.20
2024-04-19T13:22:40.123Z,9.50
2024-04-19T13:25:07.897Z,9.60
2024-04-19T13:27:35.732Z,9.80
2024-04-19T13:30:04.358Z,9.80
2024-04-19T13:32:32.018Z,10.00
2024-04-19T13:34:59.659Z,10.10
2024-04-19T13:37:27.501Z,10.40
2024-04-19T13:39:55.252Z,10.50
2024-04-19T13:42:22.875Z,10.70
2024-04-19T13:44:52.350Z,10.90
2024-04-19T13:47:21.026Z,10.90
2024-04-19T13:49:48.583Z,10.70
2024-04-19T13:52:15.825Z,10.40
2024-04-19T13:54:43.089Z,10.30
2024-04-19T13:57:10.708Z,10.40
2024-04-19T13:59:38.119Z,10.40
2024-04-19T14:02:05.608Z,10.60
2024-04-19T14:04:32.865Z,10.60
2024-04-19T14:07:02.669Z,10.70
2024-04-19T14:09:31.531Z,10.70
2024-04-19T14:11:58.984Z,10.50
2024-04-19T14:14:27.455Z,10.60
2024-04-19T14:16:55.422Z,10.50
2024-04-19T14:19:30.201Z,10.90
2024-04-19T14:21:57.420Z,10.90
2024-04-19T14:24:27.005Z,11.30
2024-04-19T14:26:54.419Z,11.60
2024-04-19T14:29:23.374Z,11.40
2024-04-19T14:31:51.359Z,11.10
2024-04-19T14:34:20.010Z,10.90
2024-04-19T14:36:47.916Z,10.60
2024-04-19T14:39:15.318Z,10.10
2024-04-19T14:41:43.809Z,9.40
2024-04-19T14:44:13.228Z,9.80
2024-04-19T14:46:40.470Z,9.90
2024-04-19T14:49:08.175Z,10.20
2024-04-19T14:51:35.586Z,10.40
2024-04-19T14:54:03.091Z,10.50
2024-04-19T14:56:30.934Z,10.70
2024-04-19T14:59:06.942Z,10.60
2024-04-19T15:01:41.185Z,10.60
2024-04-19T15:04:09.890Z,10.50
2024-04-19T15:06:40.705Z,10.40
2024-04-19T15:09:09.127Z,10.60
2024-04-19T15:11:37.373Z,10.50
2024-04-19T15:14:05.278Z,10.60
2024-04-19T15:16:33.778Z,10.60
2024-04-19T15:19:01.222Z,10.20
2024-04-19T15:21:28.684Z,10.20
2024-04-19T15:23:56.297Z,10.30
2024-04-19T15:26:23.625Z,10.50
2024-04-19T15:28:51.084Z,11.30
2024-04-19T15:31:20.934Z,12.00
2024-04-19T15:33:48.242Z,12.20
2024-04-19T15:36:15.997Z,11.30
2024-04-19T15:38:44.220Z,11.00
2024-04-19T15:41:13.050Z,10.80
2024-04-19T15:43:40.442Z,11.50
2024-04-19T15:46:08.733Z,11.80
2024-04-19T15:48:36.087Z,11.70
2024-04-19T15:51:06.667Z,11.50
2024-04-19T15:53:34.303Z,11.80
2024-04-19T15:56:01.750Z,12.10
2024-04-19T15:58:29.433Z,11.80
2024-04-19T16:00:56.951Z,11.60
2024-04-19T16:03:24.527Z,11.40
2024-04-19T16:05:51.755Z,11.50
2024-04-19T16:08:20.084Z,11.00
2024-04-19T16:10:47.610Z,10.90
2024-04-19T16:13:14.857Z,10.60
2024-04-19T16:15:42.539Z,10.30
2024-04-19T16:18:10.321Z,10.40
2024-04-19T16:20:37.709Z,10.40
2024-04-19T16:23:05.226Z,10.20
2024-04-19T16:25:32.460Z,10.10
2024-04-19T16:28:02.825Z,9.30
2024-04-19T16:30:31.064Z,9.10
2024-04-19T16:32:59.097Z,10.00
2024-04-19T16:35:26.506Z,11.00
2024-04-19T16:37:53.908Z,10.80
2024-04-19T16:40:21.554Z,10.10
2024-04-19T16:42:48.851Z,9.90
2024-04-19T16:45:17.360Z,9.90
2024-04-19T16:47:51.290Z,11.10
2024-04-19T16:50:20.700Z,11.50
2024-04-19T16:52:48.064Z,12.10
2024-04-19T16:55:17.386Z,13.10
2024-04-19T16:57:44.719Z,12.60
2024-04-19T17:00:13.080Z,12.80
2024-04-19T17:02:40.380Z,12.70
2024-04-19T17:05:07.910Z,12.70
2024-04-19T17:07:35.094Z,11.40
2024-04-19T17:10:02.471Z,10.70
2024-04-19T17:12:29.924Z,10.50
2024-04-19T17:14:57.283Z,10.30
2024-04-19T17:17:26.617Z,10.10
2024-04-19T17:19:54.293Z,10.60
2024-04-19T17:22:21.723Z,10.40
2024-04-19T17:24:49.646Z,10.40
2024-04-19T17:27:17.573Z,10.30
2024-04-19T17:29:45.111Z,10.00
2024-04-19T17:32:12.622Z,10.00
2024-04-19T17:34:41.384Z,9.90
2024-04-19T17:37:08.680Z,9.70
2024-04-19T17:39:36.567Z,9.70
2024-04-19T17:42:04.007Z,9.60
2024-04-19T17:44:35.362Z,9.30
2024-04-19T17:47:04.058Z,8.60
2024-04-19T17:49:31.496Z,8.70
2024-04-19T17:51:59.005Z,8.90
2024-04-19T17:54:26.598Z,9.00
2024-04-19T17:56:53.905Z,9.20
2024-04-19T17:59:21.587Z,8.90
2024-04-19T18:01:49.039Z,8.70
2024-04-19T18:04:17.665Z,8.60
2024-04-19T18:06:45.010Z,8.60
2024-04-19T18:09:12.871Z,8.50
2024-04-19T18:11:40.124Z,8.50
2024-04-19T18:14:07.356Z,8.50
2024-04-19T18:16:36.119Z,8.40
2024-04-19T18:19:05.724Z,8.40
2024-04-19T18:21:33.364Z,8.40
2024-04-19T18:24:04.746Z,8.30
2024-04-19T18:26:47.984Z,8.20
2024-04-19T18:29:15.146Z,8.30
2024-04-19T18:31:42.711Z,8.20
2024-04-19T18:34:15.142Z,8.10
2024-04-19T18:36:45.614Z,8.10
2024-04-19T18:39:13.681Z,8.00
2024-04-19T18:41:40.973Z,8.10
2024-04-19T18:44:08.510Z,8.00
2024-04-19T18:46:35.893Z,8.00
2024-04-19T18:49:04.918Z,8.00
2024-04-19T18:51:32.547Z,7.90
2024-04-19T18:54:00.024Z,7.90
2024-04-19T18:56:27.447Z,8.00
2024-04-19T18:58:54.760Z,7.90
2024-04-19T19:01:22.176Z,7.90
2024-04-19T19:03:49.965Z,8.00
2024-04-19T19:06:17.971Z,8.00
2024-04-19T19:08:45.297Z,8.00
2024-04-19T19:11:14.104Z,8.00
2024-04-19T19:13:44.404Z,8.00
2024-04-19T19:16:11.829Z,8.00
2024-04-19T19:18:39.686Z,8.00
2024-04-19T19:21:07.254Z,8.00
2024-04-19T19:23:34.852Z,7.90
2024-04-19T19:26:06.281Z,7.70
2024-04-19T19:28:34.038Z,7.60
2024-04-19T19:31:01.574Z,7.50
2024-04-19T19:33:28.949Z,7.40
2024-04-19T19:36:02.504Z,7.40
2024-04-19T19:38:33.290Z,7.40
2024-04-19T19:41:00.859Z,7.40
2024-04-19T19:43:33.183Z,7.30
2024-04-19T19:46:03.903Z,7.20
2024-04-19T19:48:35.030Z,7.10
2024-04-19T19:51:05.727Z,7.10
2024-04-19T19:53:33.359Z,7.00
2024-04-19T19:56:04.697Z,7.00
2024-04-19T19:58:31.938Z,7.00
2024-04-19T20:01:18.042Z,7.00
2024-04-19T20:04:14.369Z,7.10
2024-04-19T20:06:41.633Z,7.10
2024-04-19T20:09:09.050Z,7.20
2024-04-19T20:11:39.364Z,7.20
2024-04-19T20:14:09.061Z,7.20
2024-04-19T20:16:36.253Z,7.20
2024-04-19T20:19:05.302Z,7.20
2024-04-19T20:21:32.678Z,7.20
2024-04-19T20:23:59.954Z,7.20
2024-04-19T20:26:28.329Z,7.20
2024-04-19T20:29:01.626Z,7.20
2024-04-19T20:31:35.963Z,7.20
2024-04-19T20:34:03.335Z,7.20
2024-04-19T20:36:32.972Z,7.30
2024-04-19T20:39:03.498Z,7.20
2024-04-19T20:41:33.420Z,7.20
2024-04-19T20:44:03.690Z,7.10
2024-04-19T20:46:33.957Z,7.00
2024-04-19T20:49:01.518Z,7.00
2024-04-19T20:51:30.223Z,7.00
2024-04-19T20:53:58.585Z,7.00
2024-04-19T20:56:26.550Z,7.00
2024-04-19T20:58:54.029Z,7.00
2024-04-19T21:01:21.313Z,6.90
2024-04-19T21:03:48.642Z,7.00
2024-04-19T21:06:17.336Z,6.90
2024-04-19T21:08:45.084Z,6.90
2024-04-19T21:11:12.511Z,6.90
2024-04-19T21:13:39.650Z,6.90
2024-04-19T21:16:15.910Z,6.90
2024-04-19T21:18:45.240Z,6.80
2024-04-19T21:21:13.002Z,6.80
2024-04-19T21:23:49.349Z,6.70
2024-04-19T21:26:16.718Z,6.70
2024-04-19T21:28:44.097Z,6.70
2024-04-19T21:31:14.681Z,6.80
2024-04-19T21:33:42.119Z,6.80
2024-04-19T21:36:10.094Z,6.80
2024-04-19T21:38:37.857Z,6.80
2024-04-19T21:41:08.513Z,6.80
2024-04-19T21:43:36.746Z,6.80
2024-04-19T21:46:08.252Z,6.80
2024-04-19T21:48:36.807Z,6.70
2024-04-19T21:51:05.800Z,6.80
2024-04-19T21:53:33.030Z,6.80
2024-04-19T21:56:00.620Z,6.80
2024-04-19T21:58:28.052Z,6.80
2024-04-19T22:00:55.358Z,6.80
2024-04-19T22:03:22.704Z,6.70
2024-04-19T22:05:50.210Z,6.70
2024-04-19T22:08:17.582Z,6.60
2024-04-19T22:10:44.941Z,6.60
2024-04-19T22:13:14.522Z,6.60
2024-04-19T22:15:45.124Z,6.60
2024-04-19T22:18:12.359Z,6.60
2024-04-19T22:20:39.668Z,6.50
2024-04-19T22:23:07.061Z,6.50
2024-04-19T22:25:40.323Z,6.60
2024-04-19T22:28:09.749Z,6.50
2024-04-19T22:30:37.202Z,6.50
2024-04-19T22:33:04.602Z,6.50
2024-04-19T22:35:31.888Z,6.50
2024-04-19T22:37:59.148Z,6.50
2024-04-19T22:40:28.732Z,6.50
2024-04-19T22:42:57.994Z,6.50
2024-04-19T22:45:25.386Z,6.60
2024-04-19T22:47:52.740Z,6.60
2024-04-19T22:50:20.439Z,6.70
2024-04-19T22:52:47.842Z,6.70
2024-04-19T22:55:15.195Z,6.70
2024-04-19T22:57:42.828Z,6.70
2024-04-19T23:00:14.753Z,6.60
2024-04-19T23:02:42.073Z,6.60
2024-04-19T23:05:09.495Z,6.60
2024-04-19T23:07:37.201Z,6.60
2024-04-19T23:10:04.825Z,6.60
2024-04-19T23:12:32.071Z,6.60
2024-04-19T23:15:02.667Z,6.60
2024-04-19T23:17:31.552Z,6.70
2024-04-19T23:20:02.112Z,6.60
2024-04-19T23:22:29.675Z,6.60
2024-04-19T23:24:57.258Z,6.60
2024-04-19T23:27:24.718Z,6.70
2024-04-19T23:29:52.545Z,6.60
2024-04-19T23:32:19.829Z,6.70
2024-04-19T23:34:48.993Z,6.60
2024-04-19T23:37:16.178Z,6.60
2024-04-19T23:39:46.212Z,6.60
2024-04-19T23:42:13.740Z,6.50
2024-04-19T23:44:41.251Z,6.50
2024-04-19T23:47:10.677Z,6.40
2024-04-19T23:49:37.900Z,6.40
2024-04-19T23:52:05.489Z,6.40
2024-04-19T23:54:32.763Z,6.40
2024-04-19T23:57:00.554Z,6.30
2024-04-19T23:59:28.818Z,6.30
